sensor_id;sensor_type;location;lat;lon;timestamp;P1;durP1;ratioP1;P2;durP2;ratioP2
23242;SDS011;11790;49.578;11.214;2023-04-06T00:04:06;11.55;;;6.80;;
23242;SDS011;11790;49.578;11.214;2023-04-06T00:09:06;11.40;;;7.18;;
23242;SDS011;11790;49.578;11.214;2023-04-06T00:14:07;12.85;;;7.05;;
23242;SDS011;11790;49.578;11.214;2023-04-06T00:19:07;10.65;;;6.47;;
23242;SDS011;11790;49.578;11.214;2023-04-06T00:24:07;12.07;;;6.68;;
23242;SDS011;11790;49.578;11.214;2023-04-06T00:29:07;10.35;;;6.72;;
23242;SDS011;11790;49.578;11.214;2023-04-06T00:34:07;14.13;;;6.72;;
23242;SDS011;11790;49.578;11.214;2023-04-06T00:39:07;11.02;;;6.78;;
23242;SDS011;11790;49.578;11.214;2023-04-06T00:44:08;13.02;;;7.30;;
23242;SDS011;11790;49.578;11.214;2023-04-06T00:49:08;12.43;;;7.18;;
23242;SDS011;11790;49.578;11.214;2023-04-06T00:54:08;11.70;;;7.13;;
23242;SDS011;11790;49.578;11.214;2023-04-06T00:59:08;11.00;;;6.70;;
23242;SDS011;11790;49.578;11.214;2023-04-06T01:04:09;13.68;;;6.70;;
23242;SDS011;11790;49.578;11.214;2023-04-06T01:09:09;12.52;;;6.47;;
23242;SDS011;11790;49.578;11.214;2023-04-06T01:14:09;14.05;;;6.72;;
23242;SDS011;11790;49.578;11.214;2023-04-06T01:19:10;12.65;;;7.32;;
23242;SDS011;11790;49.578;11.214;2023-04-06T01:24:11;10.82;;;6.95;;
23242;SDS011;11790;49.578;11.214;2023-04-06T01:29:11;13.10;;;7.25;;
23242;SDS011;11790;49.578;11.214;2023-04-06T01:34:11;16.30;;;6.88;;
23242;SDS011;11790;49.578;11.214;2023-04-06T01:39:11;12.18;;;7.30;;
23242;SDS011;11790;49.578;11.214;2023-04-06T01:44:16;11.80;;;7.88;;
23242;SDS011;11790;49.578;11.214;2023-04-06T01:49:16;8.80;;;6.45;;
23242;SDS011;11790;49.578;11.214;2023-04-06T01:54:16;13.77;;;7.68;;
23242;SDS011;11790;49.578;11.214;2023-04-06T01:59:17;14.05;;;7.88;;
23242;SDS011;11790;49.578;11.214;2023-04-06T02:04:17;12.77;;;7.88;;
23242;SDS011;11790;49.578;11.214;2023-04-06T02:09:17;13.80;;;7.85;;
23242;SDS011;11790;49.578;11.214;2023-04-06T02:14:17;13.38;;;7.72;;
23242;SDS011;11790;49.578;11.214;2023-04-06T02:19:17;12.20;;;7.60;;
23242;SDS011;11790;49.578;11.214;2023-04-06T02:24:18;10.38;;;6.60;;
23242;SDS011;11790;49.578;11.214;2023-04-06T02:29:18;12.38;;;6.82;;
23242;SDS011;11790;49.578;11.214;2023-04-06T02:34:18;13.85;;;6.75;;
23242;SDS011;11790;49.578;11.214;2023-04-06T02:39:18;13.13;;;7.80;;
23242;SDS011;11790;49.578;11.214;2023-04-06T02:44:19;14.13;;;7.55;;
23242;SDS011;11790;49.578;11.214;2023-04-06T02:49:19;15.40;;;8.60;;
23242;SDS011;11790;49.578;11.214;2023-04-06T02:54:19;19.63;;;8.88;;
23242;SDS011;11790;49.578;11.214;2023-04-06T02:59:19;13.57;;;8.73;;
23242;SDS011;11790;49.578;11.214;2023-04-06T03:04:20;11.32;;;7.30;;
23242;SDS011;11790;49.578;11.214;2023-04-06T03:09:22;13.60;;;8.60;;
23242;SDS011;11790;49.578;11.214;2023-04-06T03:14:22;16.02;;;8.13;;
23242;SDS011;11790;49.578;11.214;2023-04-06T03:19:22;12.60;;;8.18;;
23242;SDS011;11790;49.578;11.214;2023-04-06T03:24:22;17.42;;;7.80;;
23242;SDS011;11790;49.578;11.214;2023-04-06T03:29:22;13.75;;;8.23;;
23242;SDS011;11790;49.578;11.214;2023-04-06T03:34:24;12.63;;;7.53;;
23242;SDS011;11790;49.578;11.214;2023-04-06T03:39:24;14.40;;;7.97;;
23242;SDS011;11790;49.578;11.214;2023-04-06T03:44:24;14.32;;;7.85;;
23242;SDS011;11790;49.578;11.214;2023-04-06T03:49:24;13.70;;;7.88;;
23242;SDS011;11790;49.578;11.214;2023-04-06T03:54:24;11.57;;;7.82;;
23242;SDS011;11790;49.578;11.214;2023-04-06T03:59:25;14.98;;;8.20;;
23242;SDS011;11790;49.578;11.214;2023-04-06T04:04:25;12.57;;;8.00;;
23242;SDS011;11790;49.578;11.214;2023-04-06T04:09:25;23.85;;;11.77;;
23242;SDS011;11790;49.578;11.214;2023-04-06T04:14:25;21.05;;;11.65;;
23242;SDS011;11790;49.578;11.214;2023-04-06T04:19:25;15.25;;;9.63;;
23242;SDS011;11790;49.578;11.214;2023-04-06T04:24:25;13.82;;;8.60;;
23242;SDS011;11790;49.578;11.214;2023-04-06T04:29:26;15.77;;;8.95;;
23242;SDS011;11790;49.578;11.214;2023-04-06T04:34:26;17.60;;;8.68;;
23242;SDS011;11790;49.578;11.214;2023-04-06T04:39:26;17.92;;;8.30;;
23242;SDS011;11790;49.578;11.214;2023-04-06T04:44:26;15.70;;;8.80;;
23242;SDS011;11790;49.578;11.214;2023-04-06T04:49:27;12.93;;;7.70;;
23242;SDS011;11790;49.578;11.214;2023-04-06T04:54:27;14.05;;;8.85;;
23242;SDS011;11790;49.578;11.214;2023-04-06T04:59:27;13.57;;;8.30;;
23242;SDS011;11790;49.578;11.214;2023-04-06T05:04:29;16.25;;;8.60;;
23242;SDS011;11790;49.578;11.214;2023-04-06T05:09:29;13.20;;;8.27;;
23242;SDS011;11790;49.578;11.214;2023-04-06T05:14:31;14.60;;;9.15;;
23242;SDS011;11790;49.578;11.214;2023-04-06T05:19:31;16.13;;;9.35;;
23242;SDS011;11790;49.578;11.214;2023-04-06T05:24:31;18.65;;;9.57;;
23242;SDS011;11790;49.578;11.214;2023-04-06T05:29:31;14.70;;;9.38;;
23242;SDS011;11790;49.578;11.214;2023-04-06T05:34:32;12.80;;;8.60;;
23242;SDS011;11790;49.578;11.214;2023-04-06T05:39:32;17.77;;;9.55;;
23242;SDS011;11790;49.578;11.214;2023-04-06T05:44:32;20.95;;;9.68;;
23242;SDS011;11790;49.578;11.214;2023-04-06T05:49:32;24.50;;;12.25;;
23242;SDS011;11790;49.578;11.214;2023-04-06T05:54:32;19.20;;;10.20;;
23242;SDS011;11790;49.578;11.214;2023-04-06T05:59:33;18.27;;;8.55;;
23242;SDS011;11790;49.578;11.214;2023-04-06T06:04:33;19.92;;;8.15;;
23242;SDS011;11790;49.578;11.214;2023-04-06T06:09:33;16.50;;;8.63;;
23242;SDS011;11790;49.578;11.214;2023-04-06T06:14:33;12.50;;;8.43;;
23242;SDS011;11790;49.578;11.214;2023-04-06T06:19:33;17.83;;;9.02;;
23242;SDS011;11790;49.578;11.214;2023-04-06T06:24:33;16.48;;;8.70;;
23242;SDS011;11790;49.578;11.214;2023-04-06T06:29:33;16.95;;;8.50;;
23242;SDS011;11790;49.578;11.214;2023-04-06T06:34:34;16.40;;;8.85;;
23242;SDS011;11790;49.578;11.214;2023-04-06T06:39:35;13.10;;;8.40;;
23242;SDS011;11790;49.578;11.214;2023-04-06T06:44:35;15.65;;;8.00;;
23242;SDS011;11790;49.578;11.214;2023-04-06T06:49:35;8.93;;;6.20;;
23242;SDS011;11790;49.578;11.214;2023-04-06T06:54:35;10.15;;;6.38;;
23242;SDS011;11790;49.578;11.214;2023-04-06T06:59:35;12.43;;;6.47;;
23242;SDS011;11790;49.578;11.214;2023-04-06T07:04:36;10.13;;;5.60;;
23242;SDS011;11790;49.578;11.214;2023-04-06T07:09:36;8.73;;;5.75;;
23242;SDS011;11790;49.578;11.214;2023-04-06T07:14:36;13.52;;;6.07;;
23242;SDS011;11790;49.578;11.214;2023-04-06T07:19:36;10.93;;;5.65;;
23242;SDS011;11790;49.578;11.214;2023-04-06T07:24:37;8.70;;;5.65;;
23242;SDS011;11790;49.578;11.214;2023-04-06T07:29:37;9.73;;;5.87;;
23242;SDS011;11790;49.578;11.214;2023-04-06T07:34:37;10.50;;;5.90;;
23242;SDS011;11790;49.578;11.214;2023-04-06T07:39:37;8.82;;;5.93;;
23242;SDS011;11790;49.578;11.214;2023-04-06T07:44:37;10.18;;;5.57;;
23242;SDS011;11790;49.578;11.214;2023-04-06T07:49:38;9.15;;;5.88;;
23242;SDS011;11790;49.578;11.214;2023-04-06T07:54:38;8.82;;;5.70;;
23242;SDS011;11790;49.578;11.214;2023-04-06T07:59:38;9.23;;;5.68;;
23242;SDS011;11790;49.578;11.214;2023-04-06T08:04:38;9.80;;;6.30;;
23242;SDS011;11790;49.578;11.214;2023-04-06T08:09:38;9.70;;;5.90;;
23242;SDS011;11790;49.578;11.214;2023-04-06T08:14:38;8.35;;;5.70;;
23242;SDS011;11790;49.578;11.214;2023-04-06T08:19:38;9.65;;;5.68;;
23242;SDS011;11790;49.578;11.214;2023-04-06T08:24:39;8.05;;;5.07;;
23242;SDS011;11790;49.578;11.214;2023-04-06T08:29:39;8.50;;;5.55;;
23242;SDS011;11790;49.578;11.214;2023-04-06T08:34:40;7.35;;;4.90;;
23242;SDS011;11790;49.578;11.214;2023-04-06T08:39:40;8.18;;;5.25;;
23242;SDS011;11790;49.578;11.214;2023-04-06T08:44:40;7.70;;;5.53;;
23242;SDS011;11790;49.578;11.214;2023-04-06T08:49:41;7.25;;;5.20;;
23242;SDS011;11790;49.578;11.214;2023-04-06T08:54:42;6.50;;;4.32;;
23242;SDS011;11790;49.578;11.214;2023-04-06T08:59:42;7.18;;;4.80;;
23242;SDS011;11790;49.578;11.214;2023-04-06T09:04:42;7.38;;;4.25;;
23242;SDS011;11790;49.578;11.214;2023-04-06T09:09:43;6.47;;;4.43;;
23242;SDS011;11790;49.578;11.214;2023-04-06T09:14:47;5.75;;;4.55;;
23242;SDS011;11790;49.578;11.214;2023-04-06T09:19:48;7.53;;;5.25;;
23242;SDS011;11790;49.578;11.214;2023-04-06T09:24:50;5.60;;;4.43;;
23242;SDS011;11790;49.578;11.214;2023-04-06T09:29:50;8.10;;;5.15;;
23242;SDS011;11790;49.578;11.214;2023-04-06T09:34:50;7.63;;;5.43;;
23242;SDS011;11790;49.578;11.214;2023-04-06T09:40:01;7.97;;;5.53;;
23242;SDS011;11790;49.578;11.214;2023-04-06T09:45:02;7.38;;;5.40;;
23242;SDS011;11790;49.578;11.214;2023-04-06T09:50:02;8.85;;;5.25;;
23242;SDS011;11790;49.578;11.214;2023-04-06T09:55:04;5.65;;;4.68;;
23242;SDS011;11790;49.578;11.214;2023-04-06T10:00:05;8.75;;;5.47;;
23242;SDS011;11790;49.578;11.214;2023-04-06T10:05:19;6.85;;;5.30;;
23242;SDS011;11790;49.578;11.214;2023-04-06T10:10:21;10.68;;;5.65;;
23242;SDS011;11790;49.578;11.214;2023-04-06T10:15:21;8.90;;;5.72;;
23242;SDS011;11790;49.578;11.214;2023-04-06T10:20:27;7.78;;;5.47;;
23242;SDS011;11790;49.578;11.214;2023-04-06T10:25:29;8.65;;;5.55;;
23242;SDS011;11790;49.578;11.214;2023-04-06T10:30:29;8.38;;;5.70;;
23242;SDS011;11790;49.578;11.214;2023-04-06T10:35:37;7.82;;;5.72;;
23242;SDS011;11790;49.578;11.214;2023-04-06T10:40:38;7.50;;;5.30;;
23242;SDS011;11790;49.578;11.214;2023-04-06T10:45:39;11.82;;;5.90;;
23242;SDS011;11790;49.578;11.214;2023-04-06T10:50:39;7.25;;;4.50;;
23242;SDS011;11790;49.578;11.214;2023-04-06T10:55:40;7.15;;;4.85;;
23242;SDS011;11790;49.578;11.214;2023-04-06T11:00:44;6.22;;;5.18;;
23242;SDS011;11790;49.578;11.214;2023-04-06T11:05:45;8.48;;;5.70;;
23242;SDS011;11790;49.578;11.214;2023-04-06T11:10:45;7.95;;;5.65;;
23242;SDS011;11790;49.578;11.214;2023-04-06T11:15:45;6.75;;;4.72;;
23242;SDS011;11790;49.578;11.214;2023-04-06T11:20:49;6.35;;;4.57;;
23242;SDS011;11790;49.578;11.214;2023-04-06T11:25:52;8.32;;;5.05;;
23242;SDS011;11790;49.578;11.214;2023-04-06T11:30:52;9.43;;;5.28;;
23242;SDS011;11790;49.578;11.214;2023-04-06T11:35:53;9.07;;;5.85;;
23242;SDS011;11790;49.578;11.214;2023-04-06T11:40:56;7.75;;;5.03;;
23242;SDS011;11790;49.578;11.214;2023-04-06T11:46:00;7.63;;;5.47;;
23242;SDS011;11790;49.578;11.214;2023-04-06T11:51:02;6.50;;;5.13;;
23242;SDS011;11790;49.578;11.214;2023-04-06T11:56:04;6.65;;;4.75;;
23242;SDS011;11790;49.578;11.214;2023-04-06T12:01:05;8.40;;;5.38;;
23242;SDS011;11790;49.578;11.214;2023-04-06T12:06:05;7.95;;;5.20;;
23242;SDS011;11790;49.578;11.214;2023-04-06T12:11:05;5.78;;;4.10;;
23242;SDS011;11790;49.578;11.214;2023-04-06T12:16:05;5.68;;;4.20;;
23242;SDS011;11790;49.578;11.214;2023-04-06T12:21:06;7.32;;;5.00;;
23242;SDS011;11790;49.578;11.214;2023-04-06T12:26:06;7.72;;;5.57;;
23242;SDS011;11790;49.578;11.214;2023-04-06T12:31:14;7.43;;;4.80;;
23242;SDS011;11790;49.578;11.214;2023-04-06T12:36:15;6.68;;;5.57;;
23242;SDS011;11790;49.578;11.214;2023-04-06T12:41:15;5.30;;;4.68;;
23242;SDS011;11790;49.578;11.214;2023-04-06T12:46:16;6.28;;;5.15;;
23242;SDS011;11790;49.578;11.214;2023-04-06T12:51:21;7.80;;;5.47;;
23242;SDS011;11790;49.578;11.214;2023-04-06T12:56:21;6.63;;;4.53;;
23242;SDS011;11790;49.578;11.214;2023-04-06T13:01:22;5.95;;;5.00;;
23242;SDS011;11790;49.578;11.214;2023-04-06T13:06:22;6.78;;;4.63;;
23242;SDS011;11790;49.578;11.214;2023-04-06T13:11:22;6.63;;;4.72;;
23242;SDS011;11790;49.578;11.214;2023-04-06T13:16:23;6.95;;;4.90;;
23242;SDS011;11790;49.578;11.214;2023-04-06T13:21:24;6.32;;;5.10;;
23242;SDS011;11790;49.578;11.214;2023-04-06T13:26:24;6.47;;;5.65;;
23242;SDS011;11790;49.578;11.214;2023-04-06T13:31:25;8.77;;;5.22;;
23242;SDS011;11790;49.578;11.214;2023-04-06T13:36:25;6.57;;;5.55;;
23242;SDS011;11790;49.578;11.214;2023-04-06T13:41:26;5.28;;;4.60;;
23242;SDS011;11790;49.578;11.214;2023-04-06T13:46:27;5.88;;;4.90;;
23242;SDS011;11790;49.578;11.214;2023-04-06T13:51:27;6.75;;;4.95;;
23242;SDS011;11790;49.578;11.214;2023-04-06T13:56:27;7.20;;;5.57;;
23242;SDS011;11790;49.578;11.214;2023-04-06T14:01:27;5.45;;;4.78;;
23242;SDS011;11790;49.578;11.214;2023-04-06T14:06:28;7.40;;;5.07;;
23242;SDS011;11790;49.578;11.214;2023-04-06T14:11:28;6.75;;;4.65;;
23242;SDS011;11790;49.578;11.214;2023-04-06T14:16:28;6.32;;;5.28;;
23242;SDS011;11790;49.578;11.214;2023-04-06T14:21:28;6.20;;;4.85;;
23242;SDS011;11790;49.578;11.214;2023-04-06T14:26:28;7.43;;;4.75;;
23242;SDS011;11790;49.578;11.214;2023-04-06T14:31:29;6.13;;;4.85;;
23242;SDS011;11790;49.578;11.214;2023-04-06T14:36:32;6.50;;;5.28;;
23242;SDS011;11790;49.578;11.214;2023-04-06T14:41:37;6.47;;;5.10;;
23242;SDS011;11790;49.578;11.214;2023-04-06T14:46:37;8.75;;;4.72;;
23242;SDS011;11790;49.578;11.214;2023-04-06T14:51:37;6.73;;;4.97;;
23242;SDS011;11790;49.578;11.214;2023-04-06T14:56:38;9.82;;;4.88;;
23242;SDS011;11790;49.578;11.214;2023-04-06T15:01:39;6.67;;;5.20;;
23242;SDS011;11790;49.578;11.214;2023-04-06T15:06:39;7.63;;;5.77;;
23242;SDS011;11790;49.578;11.214;2023-04-06T15:11:39;7.10;;;5.68;;
23242;SDS011;11790;49.578;11.214;2023-04-06T15:16:40;7.22;;;5.95;;
23242;SDS011;11790;49.578;11.214;2023-04-06T15:21:40;5.88;;;5.05;;
23242;SDS011;11790;49.578;11.214;2023-04-06T15:26:40;7.45;;;5.57;;
23242;SDS011;11790;49.578;11.214;2023-04-06T15:31:41;6.05;;;5.20;;
23242;SDS011;11790;49.578;11.214;2023-04-06T15:36:41;8.87;;;5.77;;
23242;SDS011;11790;49.578;11.214;2023-04-06T15:41:43;14.32;;;6.78;;
23242;SDS011;11790;49.578;11.214;2023-04-06T15:46:43;6.90;;;5.47;;
23242;SDS011;11790;49.578;11.214;2023-04-06T15:51:43;7.82;;;5.75;;
23242;SDS011;11790;49.578;11.214;2023-04-06T15:56:44;8.40;;;5.57;;
23242;SDS011;11790;49.578;11.214;2023-04-06T16:01:45;7.43;;;5.13;;
23242;SDS011;11790;49.578;11.214;2023-04-06T16:06:45;6.68;;;4.85;;
23242;SDS011;11790;49.578;11.214;2023-04-06T16:11:45;10.25;;;5.88;;
23242;SDS011;11790;49.578;11.214;2023-04-06T16:16:46;5.90;;;5.30;;
23242;SDS011;11790;49.578;11.214;2023-04-06T16:21:46;7.63;;;5.80;;
23242;SDS011;11790;49.578;11.214;2023-04-06T16:26:46;8.25;;;5.90;;
23242;SDS011;11790;49.578;11.214;2023-04-06T16:31:47;6.55;;;5.30;;
23242;SDS011;11790;49.578;11.214;2023-04-06T16:36:47;6.90;;;5.32;;
23242;SDS011;11790;49.578;11.214;2023-04-06T16:41:48;8.73;;;6.57;;
23242;SDS011;11790;49.578;11.214;2023-04-06T16:46:48;9.50;;;6.53;;
23242;SDS011;11790;49.578;11.214;2023-04-06T16:51:48;7.32;;;5.38;;
23242;SDS011;11790;49.578;11.214;2023-04-06T16:56:48;11.20;;;6.55;;
23242;SDS011;11790;49.578;11.214;2023-04-06T17:01:48;7.80;;;6.10;;
23242;SDS011;11790;49.578;11.214;2023-04-06T17:06:49;8.48;;;6.03;;
23242;SDS011;11790;49.578;11.214;2023-04-06T17:11:49;8.90;;;6.35;;
23242;SDS011;11790;49.578;11.214;2023-04-06T17:16:49;9.93;;;7.18;;
23242;SDS011;11790;49.578;11.214;2023-04-06T17:21:50;9.35;;;6.70;;
23242;SDS011;11790;49.578;11.214;2023-04-06T17:26:50;9.82;;;6.78;;
23242;SDS011;11790;49.578;11.214;2023-04-06T17:31:50;9.25;;;6.53;;
23242;SDS011;11790;49.578;11.214;2023-04-06T17:36:50;10.10;;;6.53;;
23242;SDS011;11790;49.578;11.214;2023-04-06T17:41:50;9.20;;;6.13;;
23242;SDS011;11790;49.578;11.214;2023-04-06T17:46:51;9.43;;;6.15;;
23242;SDS011;11790;49.578;11.214;2023-04-06T17:51:51;10.00;;;6.22;;
23242;SDS011;11790;49.578;11.214;2023-04-06T17:56:51;9.90;;;6.55;;
23242;SDS011;11790;49.578;11.214;2023-04-06T18:01:52;14.35;;;7.50;;
23242;SDS011;11790;49.578;11.214;2023-04-06T18:06:52;14.82;;;9.35;;
23242;SDS011;11790;49.578;11.214;2023-04-06T18:11:52;16.27;;;7.47;;
23242;SDS011;11790;49.578;11.214;2023-04-06T18:16:53;16.52;;;7.85;;
23242;SDS011;11790;49.578;11.214;2023-04-06T18:21:53;12.55;;;7.57;;
23242;SDS011;11790;49.578;11.214;2023-04-06T18:26:54;18.33;;;9.15;;
23242;SDS011;11790;49.578;11.214;2023-04-06T18:31:55;14.82;;;8.80;;
23242;SDS011;11790;49.578;11.214;2023-04-06T18:36:55;12.63;;;8.25;;
23242;SDS011;11790;49.578;11.214;2023-04-06T18:41:55;15.02;;;7.65;;
23242;SDS011;11790;49.578;11.214;2023-04-06T18:46:55;30.52;;;14.93;;
23242;SDS011;11790;49.578;11.214;2023-04-06T18:51:55;30.53;;;14.40;;
23242;SDS011;11790;49.578;11.214;2023-04-06T18:56:58;20.20;;;12.10;;
23242;SDS011;11790;49.578;11.214;2023-04-06T19:01:59;20.13;;;10.75;;
23242;SDS011;11790;49.578;11.214;2023-04-06T19:06:59;14.20;;;9.07;;
23242;SDS011;11790;49.578;11.214;2023-04-06T19:11:59;14.70;;;8.95;;
23242;SDS011;11790;49.578;11.214;2023-04-06T19:17:00;13.05;;;7.43;;
23242;SDS011;11790;49.578;11.214;2023-04-06T19:22:00;10.43;;;6.72;;
23242;SDS011;11790;49.578;11.214;2023-04-06T19:27:00;10.82;;;7.18;;
23242;SDS011;11790;49.578;11.214;2023-04-06T19:32:01;12.60;;;7.53;;
23242;SDS011;11790;49.578;11.214;2023-04-06T19:37:01;14.13;;;7.15;;
23242;SDS011;11790;49.578;11.214;2023-04-06T19:42:02;13.60;;;8.52;;
23242;SDS011;11790;49.578;11.214;2023-04-06T19:47:02;15.18;;;8.80;;
23242;SDS011;11790;49.578;11.214;2023-04-06T19:52:02;15.25;;;8.93;;
23242;SDS011;11790;49.578;11.214;2023-04-06T19:57:02;12.38;;;7.72;;
23242;SDS011;11790;49.578;11.214;2023-04-06T20:02:03;12.50;;;7.47;;
23242;SDS011;11790;49.578;11.214;2023-04-06T20:07:03;14.15;;;7.25;;
23242;SDS011;11790;49.578;11.214;2023-04-06T20:12:03;13.75;;;8.05;;
23242;SDS011;11790;49.578;11.214;2023-04-06T20:17:04;14.00;;;7.80;;
23242;SDS011;11790;49.578;11.214;2023-04-06T20:22:04;19.02;;;8.40;;
23242;SDS011;11790;49.578;11.214;2023-04-06T20:27:04;17.15;;;7.78;;
23242;SDS011;11790;49.578;11.214;2023-04-06T20:32:05;15.82;;;8.20;;
23242;SDS011;11790;49.578;11.214;2023-04-06T20:37:05;13.82;;;8.43;;
23242;SDS011;11790;49.578;11.214;2023-04-06T20:42:05;16.10;;;9.63;;
23242;SDS011;11790;49.578;11.214;2023-04-06T20:47:07;17.67;;;10.43;;
23242;SDS011;11790;49.578;11.214;2023-04-06T20:52:07;16.55;;;9.40;;
23242;SDS011;11790;49.578;11.214;2023-04-06T20:57:08;17.67;;;10.27;;
23242;SDS011;11790;49.578;11.214;2023-04-06T21:02:08;20.30;;;12.32;;
23242;SDS011;11790;49.578;11.214;2023-04-06T21:07:08;23.27;;;12.88;;
23242;SDS011;11790;49.578;11.214;2023-04-06T21:12:09;27.38;;;13.52;;
23242;SDS011;11790;49.578;11.214;2023-04-06T21:17:09;19.58;;;10.20;;
23242;SDS011;11790;49.578;11.214;2023-04-06T21:22:10;18.05;;;10.63;;
23242;SDS011;11790;49.578;11.214;2023-04-06T21:27:10;18.40;;;10.50;;
23242;SDS011;11790;49.578;11.214;2023-04-06T21:32:11;16.73;;;9.75;;
23242;SDS011;11790;49.578;11.214;2023-04-06T21:37:12;17.23;;;9.82;;
23242;SDS011;11790;49.578;11.214;2023-04-06T21:42:12;18.38;;;10.50;;
23242;SDS011;11790;49.578;11.214;2023-04-06T21:47:12;18.15;;;9.98;;
23242;SDS011;11790;49.578;11.214;2023-04-06T21:52:12;16.13;;;8.88;;
23242;SDS011;11790;49.578;11.214;2023-04-06T21:57:13;14.57;;;8.75;;
23242;SDS011;11790;49.578;11.214;2023-04-06T22:02:13;13.07;;;8.10;;
23242;SDS011;11790;49.578;11.214;2023-04-06T22:07:13;16.48;;;8.82;;
23242;SDS011;11790;49.578;11.214;2023-04-06T22:12:14;22.70;;;13.23;;
23242;SDS011;11790;49.578;11.214;2023-04-06T22:17:14;19.08;;;11.57;;
23242;SDS011;11790;49.578;11.214;2023-04-06T22:22:14;17.83;;;9.98;;
23242;SDS011;11790;49.578;11.214;2023-04-06T22:27:15;17.33;;;9.23;;
23242;SDS011;11790;49.578;11.214;2023-04-06T22:32:15;18.15;;;10.52;;
23242;SDS011;11790;49.578;11.214;2023-04-06T22:37:15;22.33;;;10.75;;
23242;SDS011;11790;49.578;11.214;2023-04-06T22:42:15;20.42;;;10.88;;
23242;SDS011;11790;49.578;11.214;2023-04-06T22:47:16;25.50;;;13.50;;
23242;SDS011;11790;49.578;11.214;2023-04-06T22:52:16;23.95;;;13.38;;
23242;SDS011;11790;49.578;11.214;2023-04-06T22:57:16;24.92;;;12.50;;
23242;SDS011;11790;49.578;11.214;2023-04-06T23:02:16;19.67;;;10.68;;
23242;SDS011;11790;49.578;11.214;2023-04-06T23:07:16;20.08;;;10.63;;
23242;SDS011;11790;49.578;11.214;2023-04-06T23:12:16;17.25;;;10.25;;
23242;SDS011;11790;49.578;11.214;2023-04-06T23:17:17;19.42;;;9.75;;
23242;SDS011;11790;49.578;11.214;2023-04-06T23:22:18;20.30;;;10.88;;
23242;SDS011;11790;49.578;11.214;2023-04-06T23:27:18;19.00;;;10.40;;
23242;SDS011;11790;49.578;11.214;2023-04-06T23:32:18;16.88;;;9.48;;
23242;SDS011;11790;49.578;11.214;2023-04-06T23:37:18;15.20;;;9.27;;
23242;SDS011;11790;49.578;11.214;2023-04-06T23:42:19;16.48;;;10.02;;
23242;SDS011;11790;49.578;11.214;2023-04-06T23:47:19;16.05;;;9.18;;
23242;SDS011;11790;49.578;11.214;2023-04-06T23:52:19;13.70;;;9.32;;
23242;SDS011;11790;49.578;11.214;2023-04-06T23:57:19;16.35;;;9.73;;
